createdAt,value
2019-04-22T00:00:10.855Z,7.15
2019-04-22T00:02:49.001Z,7.67
2019-04-22T00:05:27.950Z,7.03
2019-04-22T00:08:08.804Z,10.43
2019-04-22T00:10:48.035Z,10.23
2019-04-22T00:13:17.143Z,10.38
2019-04-22T00:15:41.856Z,9.53
2019-04-22T00:18:22.373Z,9.25
2019-04-22T00:20:50.467Z,6.80
2019-04-22T00:23:27.774Z,8.93
2019-04-22T00:25:58.150Z,8.13
2019-04-22T00:28:35.010Z,8.58
2019-04-22T00:31:06.728Z,8.73
2019-04-22T00:33:31.263Z,8.20
2019-04-22T00:36:04.316Z,9.23
2019-04-22T00:38:37.922Z,8.70
2019-04-22T00:41:05.513Z,6.65
2019-04-22T00:43:39.542Z,7.45
2019-04-22T00:46:10.965Z,8.25
2019-04-22T00:48:42.086Z,6.65
2019-04-22T00:51:12.346Z,10.18
2019-04-22T00:53:44.661Z,9.30
2019-04-22T00:58:46.444Z,7.58
2019-04-22T01:01:33.758Z,8.75
2019-04-22T01:03:55.502Z,5.65
2019-04-22T01:06:20.345Z,13.88
2019-04-22T01:09:02.337Z,5.85
2019-04-22T01:13:57.760Z,8.38
2019-04-22T01:16:28.063Z,6.55
2019-04-22T01:19:00.540Z,9.65
2019-04-22T01:21:36.587Z,8.13
2019-04-22T01:26:31.289Z,7.92
2019-04-22T01:29:02.442Z,6.15
2019-04-22T01:31:23.955Z,8.90
2019-04-22T01:34:08.287Z,6.00
2019-04-22T01:36:45.599Z,7.47
2019-04-22T01:39:18.084Z,10.53
2019-04-22T01:41:55.141Z,8.35
2019-04-22T01:44:29.087Z,7.45
2019-04-22T01:46:58.751Z,8.28
2019-04-22T01:49:27.624Z,8.23
2019-04-22T01:52:04.776Z,11.10
2019-04-22T01:54:38.386Z,9.10
2019-04-22T01:57:19.117Z,11.30
2019-04-22T01:59:27.200Z,11.00
2019-04-22T02:02:10.296Z,8.90
2019-04-22T02:07:12.523Z,7.65
2019-04-22T02:09:47.430Z,8.73
2019-04-22T02:12:17.357Z,11.30
2019-04-22T02:14:44.252Z,17.85
2019-04-22T02:17:17.729Z,11.83
2019-04-22T02:19:53.485Z,14.85
2019-04-22T02:22:37.815Z,19.15
2019-04-22T02:24:50.962Z,14.87
2019-04-22T02:27:26.154Z,13.18
2019-04-22T02:29:51.944Z,13.10
2019-04-22T02:32:39.250Z,13.62
2019-04-22T02:37:27.788Z,19.92
2019-04-22T02:40:10.207Z,17.37
2019-04-22T02:42:58.409Z,21.23
2019-04-22T02:45:26.673Z,18.42
2019-04-22T02:47:34.243Z,21.80
2019-04-22T02:52:56.429Z,41.30
2019-04-22T02:55:15.751Z,33.90
2019-04-22T02:57:55.106Z,32.15
2019-04-22T03:00:35.434Z,28.32
2019-04-22T03:05:27.704Z,36.25
2019-04-22T03:07:58.270Z,43.45
2019-04-22T03:10:43.905Z,44.25
2019-04-22T03:13:00.901Z,45.33
2019-04-22T03:15:29.975Z,51.30
2019-04-22T03:21:54.397Z,41.95
2019-04-22T03:27:02.779Z,41.80
2019-04-22T03:30:36.792Z,37.35
2019-04-22T03:37:53.335Z,37.70
2019-04-22T03:40:16.230Z,28.07
2019-04-22T03:42:52.384Z,29.72
2019-04-22T03:50:20.625Z,27.10
2019-04-22T03:52:53.064Z,25.00
2019-04-22T03:55:21.551Z,25.43
2019-04-22T04:03:51.300Z,17.60
2019-04-22T04:05:48.785Z,17.73
2019-04-22T04:10:37.625Z,14.85
2019-04-22T04:13:08.383Z,16.25
2019-04-22T04:15:32.966Z,14.55
2019-04-22T04:18:04.989Z,15.90
2019-04-22T04:20:44.727Z,15.35
2019-04-22T04:28:29.405Z,16.07
2019-04-22T04:30:42.549Z,19.95
2019-04-22T04:33:23.286Z,19.80
2019-04-22T04:38:21.760Z,23.12
2019-04-22T04:40:49.193Z,23.87
2019-04-22T04:45:55.449Z,19.12
2019-04-22T04:48:34.893Z,22.45
2019-04-22T04:53:31.850Z,19.25
2019-04-22T04:56:11.793Z,26.82
2019-04-22T04:58:53.900Z,19.75
2019-04-22T05:01:11.008Z,23.42
2019-04-22T05:03:48.819Z,21.10
2019-04-22T05:06:12.714Z,20.97
2019-04-22T05:09:03.857Z,17.02
2019-04-22T05:11:14.001Z,20.92
2019-04-22T05:18:53.058Z,18.02
2019-04-22T05:21:18.011Z,18.15
2019-04-22T05:23:52.402Z,19.95
2019-04-22T05:28:52.106Z,17.70
2019-04-22T05:31:22.407Z,19.75
2019-04-22T05:33:56.693Z,19.55
2019-04-22T05:36:30.012Z,15.25
2019-04-22T05:39:01.333Z,14.47
2019-04-22T05:41:32.315Z,18.50
2019-04-22T05:44:03.285Z,20.60
2019-04-22T05:46:34.642Z,15.95
2019-04-22T05:49:08.218Z,15.55
2019-04-22T05:51:37.045Z,19.25
2019-04-22T05:59:12.853Z,18.98
2019-04-22T06:01:52.100Z,10.95
2019-04-22T06:04:19.779Z,11.88
2019-04-22T06:06:46.986Z,10.65
2019-04-22T06:09:25.573Z,11.88
2019-04-22T06:11:44.858Z,11.40
2019-04-22T06:14:26.390Z,11.28
2019-04-22T06:17:05.057Z,8.00
2019-04-22T06:19:33.262Z,9.85
2019-04-22T06:22:04.266Z,6.33
2019-04-22T06:24:32.432Z,5.60
2019-04-22T06:29:39.920Z,6.03
2019-04-22T06:34:42.255Z,6.42
2019-04-22T06:37:17.608Z,6.17
2019-04-22T06:39:55.435Z,4.65
2019-04-22T06:46:27.527Z,7.60
2019-04-22T06:49:01.339Z,6.65
2019-04-22T06:54:03.341Z,4.47
2019-04-22T06:56:33.034Z,9.50
2019-04-22T06:59:07.234Z,13.60
2019-04-22T07:01:42.511Z,10.28
2019-04-22T07:04:09.234Z,20.70
2019-04-22T07:06:48.152Z,15.63
2019-04-22T07:11:51.548Z,8.58
2019-04-22T07:14:16.304Z,9.45
2019-04-22T07:17:00.866Z,9.10
2019-04-22T07:19:30.468Z,16.97
2019-04-22T07:21:57.945Z,21.42
2019-04-22T07:24:43.839Z,16.75
2019-04-22T07:27:04.710Z,15.88
2019-04-22T07:29:32.544Z,13.93
2019-04-22T07:32:25.274Z,9.10
2019-04-22T07:37:23.366Z,9.38
2019-04-22T07:39:41.727Z,9.90
2019-04-22T07:42:15.361Z,8.20
2019-04-22T07:44:45.100Z,15.53
2019-04-22T07:49:51.739Z,7.90
2019-04-22T07:52:23.166Z,8.15
2019-04-22T07:54:52.489Z,5.78
2019-04-22T07:57:31.101Z,5.97
2019-04-22T08:00:02.891Z,10.43
2019-04-22T08:02:32.696Z,6.97
2019-04-22T08:12:40.983Z,5.42
2019-04-22T08:15:06.116Z,5.87
2019-04-22T08:22:45.106Z,7.78
2019-04-22T08:27:53.361Z,10.30
2019-04-22T08:32:54.524Z,6.10
2019-04-22T08:35:29.837Z,5.05
2019-04-22T08:43:05.835Z,6.17
2019-04-22T08:45:38.521Z,8.18
2019-04-22T08:48:08.664Z,11.08
2019-04-22T08:53:16.088Z,10.80
2019-04-22T08:58:27.371Z,10.38
2019-04-22T09:00:54.210Z,7.35
2019-04-22T09:08:32.467Z,7.17
2019-04-22T09:10:57.081Z,6.75
2019-04-22T09:13:31.870Z,6.25
2019-04-22T09:15:55.387Z,7.45
2019-04-22T09:21:21.108Z,7.70
2019-04-22T09:26:09.466Z,8.38
2019-04-22T09:28:44.067Z,10.28
2019-04-22T09:31:11.333Z,7.80
2019-04-22T09:33:43.211Z,11.03
2019-04-22T09:36:22.388Z,7.53
2019-04-22T09:38:46.894Z,16.42
2019-04-22T09:46:28.323Z,9.45
2019-04-22T09:49:08.028Z,12.63
2019-04-22T09:51:32.467Z,6.90
2019-04-22T09:56:38.751Z,7.92
2019-04-22T09:59:07.608Z,13.53
2019-04-22T10:04:06.722Z,38.38
2019-04-22T10:06:36.984Z,35.38
2019-04-22T10:15:50.521Z,37.53
2019-04-22T10:18:20.411Z,7.55
2019-04-22T10:20:54.088Z,6.22
2019-04-22T10:23:24.989Z,5.72
2019-04-22T10:26:02.534Z,7.50
2019-04-22T10:28:32.744Z,7.17
2019-04-22T10:30:53.558Z,6.10
2019-04-22T10:35:39.357Z,7.60
2019-04-22T10:40:42.798Z,6.20
2019-04-22T10:43:13.319Z,7.75
2019-04-22T10:45:46.103Z,3.98
2019-04-22T10:48:16.581Z,4.85
2019-04-22T10:50:50.630Z,10.00
2019-04-22T10:53:21.787Z,14.07
2019-04-22T10:55:52.341Z,5.08
2019-04-22T10:58:24.819Z,6.05
2019-04-22T11:00:56.188Z,5.97
2019-04-22T11:03:28.414Z,3.08
2019-04-22T11:05:59.324Z,5.95
2019-04-22T11:08:40.194Z,5.90
2019-04-22T11:11:16.233Z,5.47
2019-04-22T11:16:07.747Z,7.55
2019-04-22T11:18:38.086Z,8.08
2019-04-22T11:21:09.650Z,4.53
2019-04-22T11:23:40.697Z,6.95
2019-04-22T11:26:12.116Z,4.57
2019-04-22T11:28:43.397Z,7.00
2019-04-22T11:31:14.676Z,9.18
2019-04-22T11:33:45.345Z,6.12
2019-04-22T11:36:15.862Z,6.75
2019-04-22T11:38:55.284Z,6.47
2019-04-22T11:43:47.485Z,7.87
2019-04-22T11:46:18.082Z,4.50
2019-04-22T11:48:49.896Z,7.08
2019-04-22T11:53:50.400Z,7.85
2019-04-22T11:56:20.951Z,6.40
2019-04-22T11:58:51.231Z,5.08
2019-04-22T12:01:21.627Z,7.75
2019-04-22T12:03:53.864Z,10.08
2019-04-22T12:06:26.221Z,6.37
2019-04-22T12:11:26.355Z,5.53
2019-04-22T12:13:57.844Z,7.08
2019-04-22T12:16:29.509Z,6.37
2019-04-22T12:19:02.954Z,7.28
2019-04-22T12:21:37.072Z,5.92
2019-04-22T12:24:09.090Z,8.28
2019-04-22T12:26:42.196Z,7.72
2019-04-22T12:29:13.475Z,7.97
2019-04-22T12:31:45.160Z,7.83
2019-04-22T12:34:15.787Z,7.80
2019-04-22T12:36:46.859Z,5.08
2019-04-22T12:39:18.774Z,7.70
2019-04-22T12:44:22.182Z,10.23
2019-04-22T12:46:52.649Z,9.13
2019-04-22T12:49:22.841Z,4.87
2019-04-22T12:51:54.810Z,6.65
2019-04-22T12:54:26.810Z,9.55
2019-04-22T12:56:57.732Z,9.73
2019-04-22T12:59:29.776Z,5.85
2019-04-22T13:02:00.688Z,6.33
2019-04-22T13:04:32.277Z,7.65
2019-04-22T13:07:03.805Z,7.83
2019-04-22T13:09:34.183Z,6.53
2019-04-22T13:12:04.458Z,3.75
2019-04-22T13:14:35.008Z,7.42
2019-04-22T13:17:06.208Z,9.95
2019-04-22T13:19:38.086Z,5.92
2019-04-22T13:24:37.676Z,12.13
2019-04-22T13:27:10.958Z,4.87
2019-04-22T13:29:41.345Z,5.50
2019-04-22T13:32:13.188Z,4.10
2019-04-22T13:37:14.888Z,8.90
2019-04-22T13:39:46.955Z,10.03
2019-04-22T13:42:20.386Z,9.98
2019-04-22T13:47:34.649Z,10.05
2019-04-22T13:52:56.363Z,7.00
2019-04-22T13:55:23.975Z,4.58
2019-04-22T13:57:49.099Z,4.08
2019-04-22T14:00:01.364Z,6.35
2019-04-22T14:02:32.633Z,6.85
2019-04-22T14:05:06.535Z,11.15
2019-04-22T14:07:37.063Z,7.05
2019-04-22T14:10:09.183Z,5.12
2019-04-22T14:12:39.464Z,6.87
2019-04-22T14:15:11.724Z,4.35
2019-04-22T14:17:43.333Z,9.15
2019-04-22T14:22:46.291Z,8.20
2019-04-22T14:25:18.878Z,3.75
2019-04-22T14:27:56.552Z,17.77
2019-04-22T14:30:24.289Z,4.92
2019-04-22T14:32:55.946Z,6.55
2019-04-22T14:37:58.241Z,8.85
2019-04-22T14:40:32.423Z,7.15
2019-04-22T14:43:24.761Z,10.63
2019-04-22T14:48:36.297Z,7.62
2019-04-22T14:51:06.302Z,8.35
2019-04-22T14:53:30.852Z,6.08
2019-04-22T14:55:44.420Z,5.72
2019-04-22T14:58:15.154Z,5.72
2019-04-22T15:00:45.982Z,9.13
2019-04-22T15:03:17.649Z,5.83
2019-04-22T15:08:19.209Z,6.58
2019-04-22T15:10:51.726Z,5.65
2019-04-22T15:13:23.245Z,5.33
2019-04-22T15:15:59.500Z,8.60
2019-04-22T15:18:37.717Z,8.10
2019-04-22T15:21:10.918Z,7.28
2019-04-22T15:23:42.472Z,9.18
2019-04-22T15:28:42.978Z,6.30
2019-04-22T15:31:15.289Z,10.28
2019-04-22T15:33:49.872Z,6.47
2019-04-22T15:36:18.207Z,6.97
2019-04-22T15:38:49.178Z,11.15
2019-04-22T15:41:20.719Z,8.60
2019-04-22T15:46:24.025Z,8.23
2019-04-22T15:48:55.862Z,6.55
2019-04-22T15:51:26.835Z,5.33
2019-04-22T15:53:58.350Z,5.55
2019-04-22T15:56:30.535Z,4.03
2019-04-22T16:01:37.240Z,4.15
2019-04-22T16:04:06.213Z,4.75
2019-04-22T16:09:11.223Z,8.05
2019-04-22T16:11:42.982Z,4.97
2019-04-22T16:14:23.935Z,6.65
2019-04-22T16:16:48.375Z,6.67
2019-04-22T16:19:21.149Z,5.42
2019-04-22T16:21:56.636Z,10.03
2019-04-22T16:24:24.194Z,5.87
2019-04-22T16:27:00.505Z,8.88
2019-04-22T16:29:31.571Z,4.47
2019-04-22T16:32:05.343Z,4.80
2019-04-22T16:34:36.114Z,6.40
2019-04-22T16:37:07.150Z,4.47
2019-04-22T16:39:42.068Z,5.25
2019-04-22T16:42:25.866Z,5.08
2019-04-22T16:44:47.432Z,8.33
2019-04-22T16:47:19.719Z,6.12
2019-04-22T16:49:50.160Z,3.40
2019-04-22T16:52:22.003Z,5.80
2019-04-22T16:54:56.823Z,6.47
2019-04-22T16:57:28.130Z,6.20
2019-04-22T16:59:58.629Z,11.63
2019-04-22T17:02:30.822Z,7.60
2019-04-22T17:05:02.717Z,3.47
2019-04-22T17:07:34.005Z,7.17
2019-04-22T17:10:05.971Z,3.15
2019-04-22T17:12:44.547Z,7.22
2019-04-22T17:20:13.270Z,6.03
2019-04-22T17:22:43.746Z,4.08
2019-04-22T17:25:14.326Z,9.00
2019-04-22T17:27:45.597Z,7.05
2019-04-22T17:30:22.141Z,7.10
2019-04-22T17:32:54.599Z,7.50
2019-04-22T17:35:26.222Z,6.90
2019-04-22T17:38:08.811Z,10.15
2019-04-22T17:40:45.693Z,4.72
2019-04-22T17:43:29.894Z,4.37
2019-04-22T17:48:36.827Z,4.85
2019-04-22T17:51:16.576Z,7.80
2019-04-22T17:53:51.583Z,8.80
2019-04-22T17:56:13.749Z,3.70
2019-04-22T17:58:47.603Z,6.53
2019-04-22T18:03:37.483Z,7.62
2019-04-22T18:08:51.868Z,6.50
2019-04-22T18:14:13.109Z,7.75
2019-04-22T18:16:32.313Z,5.25
2019-04-22T18:21:28.894Z,11.12
2019-04-22T18:23:55.428Z,6.35
2019-04-22T18:26:32.292Z,8.50
2019-04-22T18:29:10.026Z,7.58
2019-04-22T18:31:38.544Z,6.05
2019-04-22T18:34:10.005Z,7.15
2019-04-22T18:36:40.431Z,5.70
2019-04-22T18:41:50.095Z,5.47
2019-04-22T18:44:27.101Z,6.67
2019-04-22T18:46:53.822Z,4.33
2019-04-22T18:49:28.007Z,3.80
2019-04-22T18:52:04.097Z,6.80
2019-04-22T18:54:43.868Z,5.60
2019-04-22T18:57:15.689Z,7.70
2019-04-22T18:59:34.608Z,6.45
2019-04-22T19:02:07.829Z,4.67
2019-04-22T19:04:44.699Z,5.17
2019-04-22T19:07:30.999Z,8.43
2019-04-22T19:10:06.321Z,7.42
2019-04-22T19:12:33.847Z,7.55
2019-04-22T19:15:04.983Z,7.10
2019-04-22T19:17:39.218Z,7.95
2019-04-22T19:20:08.236Z,12.53
2019-04-22T19:22:36.720Z,9.83
2019-04-22T19:25:01.262Z,10.45
2019-04-22T19:27:36.000Z,8.53
2019-04-22T19:30:13.811Z,7.42
2019-04-22T19:32:45.170Z,10.05
2019-04-22T19:35:11.583Z,14.83
2019-04-22T19:37:41.316Z,27.98
2019-04-22T19:40:30.335Z,45.48
2019-04-22T19:42:57.776Z,51.92
2019-04-22T19:45:16.053Z,62.25
2019-04-22T19:47:58.286Z,67.78
2019-04-22T19:50:30.851Z,59.23
2019-04-22T19:52:59.906Z,53.87
2019-04-22T19:55:33.364Z,44.85
2019-04-22T19:58:00.040Z,50.67
2019-04-22T20:00:32.248Z,39.63
2019-04-22T20:03:24.950Z,57.98
2019-04-22T20:05:56.230Z,40.48
2019-04-22T20:08:26.852Z,36.80
2019-04-22T20:11:04.071Z,32.23
2019-04-22T20:13:37.223Z,27.48
2019-04-22T20:15:50.847Z,39.65
2019-04-22T20:18:39.388Z,37.28
2019-04-22T20:21:04.209Z,43.33
2019-04-22T20:23:29.108Z,29.27
2019-04-22T20:26:06.398Z,24.30
2019-04-22T20:28:41.873Z,29.72
2019-04-22T20:31:14.674Z,36.25
2019-04-22T20:33:50.059Z,38.92
2019-04-22T20:36:26.911Z,48.92
2019-04-22T20:38:46.709Z,38.02
2019-04-22T20:41:13.723Z,48.92
2019-04-22T20:43:54.546Z,32.08
2019-04-22T20:46:20.562Z,19.50
2019-04-22T20:48:56.926Z,17.17
2019-04-22T20:51:31.050Z,10.20
2019-04-22T20:54:02.735Z,10.05
2019-04-22T20:56:26.820Z,9.25
2019-04-22T20:59:01.701Z,7.40
2019-04-22T21:01:34.294Z,6.67
2019-04-22T21:03:50.660Z,6.08
2019-04-22T21:06:37.064Z,8.03
2019-04-22T21:09:12.054Z,9.88
2019-04-22T21:11:40.888Z,7.20
2019-04-22T21:14:05.971Z,7.17
2019-04-22T21:16:44.488Z,11.83
2019-04-22T21:19:21.647Z,8.13
2019-04-22T21:21:50.213Z,11.63
2019-04-22T21:24:18.630Z,7.97
2019-04-22T21:26:48.235Z,8.08
2019-04-22T21:29:17.323Z,11.38
2019-04-22T21:31:54.575Z,9.35
2019-04-22T21:34:23.208Z,13.43
2019-04-22T21:37:03.920Z,11.60
2019-04-22T21:39:29.256Z,6.78
2019-04-22T21:42:01.192Z,7.97
2019-04-22T21:44:32.369Z,10.38
2019-04-22T21:47:12.954Z,17.00
2019-04-22T21:49:39.001Z,10.30
2019-04-22T21:52:08.024Z,8.15
2019-04-22T21:54:48.970Z,10.58
2019-04-22T21:57:25.010Z,10.90
2019-04-22T21:59:46.225Z,9.10
2019-04-22T22:02:25.647Z,8.40
2019-04-22T22:04:47.326Z,7.15
2019-04-22T22:07:12.949Z,9.48
2019-04-22T22:09:54.168Z,7.00
2019-04-22T22:12:33.770Z,10.85
2019-04-22T22:15:03.749Z,16.30
2019-04-22T22:17:31.303Z,18.87
2019-04-22T22:19:57.766Z,14.18
2019-04-22T22:22:49.680Z,11.50
2019-04-22T22:25:11.116Z,16.27
2019-04-22T22:27:40.526Z,9.78
2019-04-22T22:32:51.442Z,10.20
2019-04-22T22:35:16.198Z,16.73
2019-04-22T22:37:48.724Z,19.95
2019-04-22T22:40:07.427Z,27.90
2019-04-22T22:42:38.954Z,37.83
2019-04-22T22:45:17.845Z,41.33
2019-04-22T22:48:07.359Z,39.65
2019-04-22T22:50:30.281Z,33.33
2019-04-22T22:53:15.456Z,42.38
2019-04-22T22:55:37.311Z,36.95
2019-04-22T22:58:14.307Z,28.45
2019-04-22T23:00:35.334Z,31.85
2019-04-22T23:05:50.502Z,28.15
2019-04-22T23:08:20.164Z,22.07
2019-04-22T23:10:56.003Z,16.93
2019-04-22T23:13:21.496Z,19.82
2019-04-22T23:15:46.718Z,14.40
2019-04-22T23:18:01.744Z,9.18
2019-04-22T23:20:37.834Z,14.13
2019-04-22T23:23:20.357Z,11.00
2019-04-22T23:26:01.698Z,7.37
2019-04-22T23:28:40.051Z,5.97
2019-04-22T23:31:14.050Z,6.87
2019-04-22T23:33:54.639Z,9.10
2019-04-22T23:36:21.900Z,8.95
2019-04-22T23:42:18.250Z,5.95
2019-04-22T23:46:55.352Z,11.57
2019-04-22T23:49:25.235Z,5.62
2019-04-22T23:52:10.111Z,10.03
2019-04-22T23:54:38.965Z,8.78
2019-04-22T23:57:03.385Z,10.18
